M I D A S
Marine Information and Data Acquisition System
Tripno 944 of the Zeeleeuw from 2005-05-19 07:03:27 to 2005-05-19 13:30:32
Back to CruiseResearch ActivitiesStationsMapUnderway DataData graphs

EquipmentUnitsComment
TimeDGPSUTC
LatitudeDGPSDM.mWGS84
LongitudeDGPSDM.mWGS84
HeadingGyrodeg 
SOGDGPSknotsSpeed over ground
COGDGPSdegCourse over ground
DepthEcho soundermeters200 kHz
Missing or incorrect values are displayed as -999
Navigation data collected by the RV Zeeleeuw from 2005-05-19 06:55:13 to 2005-05-19 13:41:00
                                                                                    Next 1000 lines
Time Latitude Longitude Heading SOG COG Depth
2005-05-19 06:55:23 51°13.593 2°56.102 135.5 0.6 140 8.1
2005-05-19 06:55:29 51°13.591 2°56.105 135.6 1.2 134 8.1
2005-05-19 06:55:33 51°13.59 2°56.107 135.7 1.5 133 8.1
2005-05-19 06:55:39 51°13.588 2°56.112 135.4 2 131 8.3
2005-05-19 06:55:43 51°13.585 2°56.115 135.3 2 131 -999
2005-05-19 06:55:49 51°13.582 2°56.121 135.3 2.8 131 9.1
2005-05-19 06:55:53 51°13.58 2°56.126 135.3 3.3 132 9.9
2005-05-19 06:55:59 51°13.576 2°56.132 135.5 3.3 132 10
2005-05-19 06:56:03 51°13.572 2°56.138 135.5 3.8 131 9.9
2005-05-19 06:56:09 51°13.568 2°56.145 135.3 3.8 131 9.6
2005-05-19 06:56:13 51°13.565 2°56.151 135.2 4 132 10
2005-05-19 06:56:19 51°13.561 2°56.158 135.2 4 132 10.1
2005-05-19 06:56:24 51°13.558 2°56.164 135.2 3.7 132 10.3
2005-05-19 06:56:29 51°13.554 2°56.17 135.3 3.6 130 10.3
2005-05-19 06:56:33 51°13.551 2°56.176 135.2 3.7 130 10.3
2005-05-19 06:56:39 51°13.548 2°56.185 132 4 123 10.3
2005-05-19 06:56:43 51°13.546 2°56.192 125.4 4 123 10.3
2005-05-19 06:56:49 51°13.545 2°56.201 118 4 123 10.4
2005-05-19 06:56:53 51°13.544 2°56.208 110.4 4 123 10.4
2005-05-19 06:56:59 51°13.543 2°56.216 103.9 3.4 98 10.2
2005-05-19 06:57:03 51°13.543 2°56.221 100.2 2.6 94 9.8
2005-05-19 06:57:09 51°13.544 2°56.226 95.3 2.6 94 9.5
2005-05-19 06:57:13 51°13.544 2°56.228 90.8 1.6 82 9.4
2005-05-19 06:57:19 51°13.545 2°56.231 85.4 1.2 76 9.7
2005-05-19 06:57:23 51°13.545 2°56.232 80.3 0.8 74 9.7
2005-05-19 06:57:29 51°13.545 2°56.232 75.9 0.5 62 9.8
2005-05-19 06:57:33 51°13.545 2°56.231 71.9 0.2 285 9.8
2005-05-19 06:57:39 51°13.545 2°56.23 68.3 0.4 273 9.8
2005-05-19 06:57:43 51°13.545 2°56.228 64.6 0.8 255 9.6
2005-05-19 06:57:49 51°13.544 2°56.225 62.2 0.8 255 9.5
2005-05-19 06:57:54 51°13.542 2°56.222 59.1 1.3 245 -999
2005-05-19 06:57:59 51°13.541 2°56.219 56.9 1.6 242 -999
2005-05-19 06:58:04 51°13.54 2°56.216 55 1.6 242 -999
2005-05-19 06:58:09 51°13.54 2°56.214 53.8 1.3 245 -999
2005-05-19 06:58:14 51°13.54 2°56.214 52.5 1 247 -999
2005-05-19 06:58:19 51°13.541 2°56.215 48.4 1 247 10.3
2005-05-19 06:58:23 51°13.542 2°56.216 43.5 1 247 -999
2005-05-19 06:58:29 51°13.545 2°56.217 34.8 1.4 30 -999
2005-05-19 06:58:34 51°13.546 2°56.218 28.3 1.2 17 -999
2005-05-19 06:58:39 51°13.546 2°56.218 24.5 1.2 17 -999
2005-05-19 06:58:43 51°13.546 2°56.218 21.5 0.2 347 -999
2005-05-19 06:58:49 51°13.546 2°56.218 18.3 0.2 347 4.8
2005-05-19 06:58:54 51°13.545 2°56.217 16.5 0.4 197 9.9
2005-05-19 06:58:59 51°13.543 2°56.217 15 0.9 191 9.8
2005-05-19 06:59:04 51°13.541 2°56.216 13.4 1.2 192 9.8
2005-05-19 06:59:09 51°13.539 2°56.216 12.1 1.2 192 -999
2005-05-19 06:59:14 51°13.537 2°56.215 10.8 1.6 191 -999
2005-05-19 06:59:19 51°13.535 2°56.214 10.3 1.5 188 -999
2005-05-19 06:59:24 51°13.534 2°56.214 10 1.2 195 -999
2005-05-19 06:59:29 51°13.534 2°56.214 8.9 0.6 197 -999
2005-05-19 06:59:34 51°13.535 2°56.213 5 0.7 336 -999
2005-05-19 06:59:39 51°13.538 2°56.212 359.1 0.9 342 -999
2005-05-19 06:59:44 51°13.54 2°56.211 352 1.7 345 -999
2005-05-19 06:59:49 51°13.542 2°56.21 345.2 1.6 337 -999
2005-05-19 06:59:54 51°13.542 2°56.209 341.2 1.6 337 -999
2005-05-19 06:59:59 51°13.543 2°56.21 337.6 1.6 337 -999
2005-05-19 07:00:04 51°13.542 2°56.21 334.2 0.2 77 -999
2005-05-19 07:00:09 51°13.541 2°56.211 331.9 0.5 138 5.1
2005-05-19 07:00:13 51°13.541 2°56.214 330.6 1.3 136 5.4
2005-05-19 07:00:19 51°13.538 2°56.217 329.6 1.3 136 10.6
2005-05-19 07:00:24 51°13.536 2°56.219 329.1 2 138 -999
2005-05-19 07:00:29 51°13.533 2°56.223 328.8 2.2 140 -999
2005-05-19 07:00:34 51°13.531 2°56.226 328.8 2.1 140 -999
2005-05-19 07:00:39 51°13.529 2°56.228 329.5 2.1 140 6.4
2005-05-19 07:00:44 51°13.528 2°56.23 330.1 2.1 140 -999
2005-05-19 07:00:49 51°13.527 2°56.23 330.4 2.1 140 -999
2005-05-19 07:00:54 51°13.528 2°56.229 327.2 0.4 322 -999
2005-05-19 07:00:59 51°13.53 2°56.226 320.8 0.8 322 -999
2005-05-19 07:01:03 51°13.531 2°56.223 315.7 2.1 309 -999
2005-05-19 07:01:09 51°13.534 2°56.217 310.2 2.1 309 -999
2005-05-19 07:01:15 51°13.538 2°56.209 306.3 3.5 304 -999
2005-05-19 07:01:19 51°13.541 2°56.202 304 3.8 304 -999
2005-05-19 07:01:23 51°13.543 2°56.194 301.9 4.7 299 10.4
2005-05-19 07:01:29 51°13.546 2°56.182 300.1 4.9 298 10.4
2005-05-19 07:01:33 51°13.548 2°56.173 297.8 4.9 298 10.4
2005-05-19 07:01:39 51°13.552 2°56.158 294.8 5.7 290 10.3
2005-05-19 07:01:43 51°13.555 2°56.147 292.9 6 290 10.3
2005-05-19 07:01:49 51°13.558 2°56.131 292.5 6 290 10.3
2005-05-19 07:01:54 51°13.561 2°56.119 292.5 6.4 290 10.2
2005-05-19 07:01:59 51°13.564 2°56.105 292.8 6.4 290 10.2
2005-05-19 07:02:03 51°13.567 2°56.093 293.2 6.4 290 10.2
2005-05-19 07:02:09 51°13.571 2°56.078 294.2 6.7 291 10.4
2005-05-19 07:02:13 51°13.574 2°56.068 295.5 6.7 291 10.3
2005-05-19 07:02:19 51°13.578 2°56.052 296.9 6.5 293 10.3
2005-05-19 07:02:24 51°13.582 2°56.04 297.6 6.5 293 10.6
2005-05-19 07:02:29 51°13.585 2°56.028 297.9 6.2 295 10.7
2005-05-19 07:02:33 51°13.589 2°56.019 298.3 6.1 295 10.8
2005-05-19 07:02:39 51°13.593 2°56.005 299.7 6 296 10.8
2005-05-19 07:02:44 51°13.598 2°55.992 301.1 6 296 -999
2005-05-19 07:02:49 51°13.601 2°55.982 302.1 6 296 10.6
2005-05-19 07:02:54 51°13.605 2°55.971 302.7 5.8 300 -999
2005-05-19 07:02:59 51°13.61 2°55.959 303.5 5.8 300 -999
2005-05-19 07:03:04 51°13.614 2°55.948 304.6 5.8 301 -999
2005-05-19 07:03:09 51°13.618 2°55.937 305.4 5.8 301 -999
2005-05-19 07:03:14 51°13.622 2°55.927 306.1 5.7 302 10.9
2005-05-19 07:03:19 51°13.626 2°55.917 306.7 5.7 302 11.3
2005-05-19 07:03:24 51°13.631 2°55.905 307.7 5.8 304 -999
2005-05-19 07:03:29 51°13.636 2°55.895 309.3 5.8 304 -999
2005-05-19 07:03:34 51°13.641 2°55.884 311.6 6 306 -999
2005-05-19 07:03:39 51°13.647 2°55.873 312.7 6.1 308 -999
2005-05-19 07:03:44 51°13.652 2°55.863 313.5 6.4 310 -999
2005-05-19 07:03:49 51°13.658 2°55.852 314.1 6.4 310 -999
2005-05-19 07:03:54 51°13.664 2°55.84 314.2 6.6 310 -999
2005-05-19 07:03:59 51°13.67 2°55.829 314 6.7 310 11.1
2005-05-19 07:04:03 51°13.675 2°55.819 313.4 6.8 309 10.1
2005-05-19 07:04:09 51°13.682 2°55.806 312.7 6.8 309 10.7
2005-05-19 07:04:14 51°13.688 2°55.793 311.7 7.1 308 -999
2005-05-19 07:04:19 51°13.694 2°55.78 311 7.1 308 12.8
2005-05-19 07:04:24 51°13.701 2°55.767 311.4 7.4 308 -999
2005-05-19 07:04:29 51°13.708 2°55.754 312.7 7.4 308 13.4
2005-05-19 07:04:34 51°13.714 2°55.743 314.5 7.6 310 13.7
2005-05-19 07:04:39 51°13.722 2°55.73 316.3 7.7 313 13.2
2005-05-19 07:04:43 51°13.729 2°55.72 319.3 7.7 313 12
2005-05-19 07:04:49 51°13.738 2°55.707 322.4 7.9 319 11.5
2005-05-19 07:04:53 51°13.746 2°55.699 325.9 8 322 11.5
2005-05-19 07:04:59 51°13.757 2°55.687 329.6 8 324 10.9
2005-05-19 07:05:03 51°13.765 2°55.679 332.1 8.1 327 10.9
2005-05-19 07:05:08 51°13.775 2°55.669 333.4 8.1 327 10.8
2005-05-19 07:05:14 51°13.786 2°55.659 334.4 8.3 330 11.1
2005-05-19 07:05:19 51°13.796 2°55.65 335.1 8.3 331 11.1
2005-05-19 07:05:23 51°13.806 2°55.643 335.9 8.3 331 11.3
2005-05-19 07:05:29 51°13.817 2°55.633 336.5 8.3 331 11.5
2005-05-19 07:05:33 51°13.827 2°55.626 336.8 8.5 334 11.4
2005-05-19 07:05:39 51°13.839 2°55.617 338.2 8.5 334 11.2
2005-05-19 07:05:44 51°13.85 2°55.61 339.7 8.5 334 11.1
2005-05-19 07:05:49 51°13.862 2°55.602 341.8 8.8 338 11.3
2005-05-19 07:05:53 51°13.872 2°55.596 342.7 9 338 11
2005-05-19 07:05:59 51°13.885 2°55.588 342.8 9 338 11
2005-05-19 07:06:04 51°13.897 2°55.58 342.6 9 338 10.9
2005-05-19 07:06:09 51°13.909 2°55.572 342.3 9 338 10.9
2005-05-19 07:06:13 51°13.919 2°55.566 341.8 9.3 337 10.9
2005-05-19 07:06:18 51°13.932 2°55.557 341.1 9.4 337 11
2005-05-19 07:06:24 51°13.947 2°55.548 341.8 9.4 337 11.1
2005-05-19 07:06:29 51°13.958 2°55.541 343 9.4 339 11.1
2005-05-19 07:06:34 51°13.97 2°55.532 343.4 9.5 337 11.1
2005-05-19 07:06:38 51°13.981 2°55.525 341.7 9.5 337 11.1
2005-05-19 07:06:43 51°13.993 2°55.517 341.2 9.5 337 11
2005-05-19 07:06:49 51°14.006 2°55.508 342 9.5 337 11
2005-05-19 07:06:53 51°14.016 2°55.501 342.2 9.5 337 10.9
2005-05-19 07:06:59 51°14.03 2°55.491 341.8 9.5 337 10.8
2005-05-19 07:07:03 51°14.041 2°55.484 341.7 9.5 337 10.7
2005-05-19 07:07:09 51°14.054 2°55.475 342.1 9.5 338 10.8
2005-05-19 07:07:13 51°14.065 2°55.469 342.8 9.5 338 11.3
2005-05-19 07:07:19 51°14.08 2°55.458 342.7 9.4 338 11.5
2005-05-19 07:07:24 51°14.09 2°55.45 341.1 9.5 336 -999
2005-05-19 07:07:29 51°14.102 2°55.441 339.5 9.5 335 11.1
2005-05-19 07:07:33 51°14.113 2°55.433 339.4 9.6 335 11.5
2005-05-19 07:07:39 51°14.129 2°55.422 340.4 9.8 335 -999
2005-05-19 07:07:44 51°14.142 2°55.413 340.9 10.2 337 -999
2005-05-19 07:07:50 51°14.156 2°55.401 339.5 10.4 334 -999
2005-05-19 07:07:53 51°14.166 2°55.393 337.6 10.7 332 -999
2005-05-19 07:07:59 51°14.182 2°55.38 336.3 10.8 332 11.7
2005-05-19 07:08:04 51°14.194 2°55.369 335.7 10.8 332 -999
2005-05-19 07:08:09 51°14.207 2°55.357 334.9 11 330 11.7
2005-05-19 07:08:13 51°14.217 2°55.346 334.3 11 328 11.6
2005-05-19 07:08:19 51°14.233 2°55.327 332.8 11 328 11.5
2005-05-19 07:08:23 51°14.243 2°55.314 329 11.1 321 11.5
2005-05-19 07:08:29 51°14.255 2°55.295 324.6 11.1 321 11.4
2005-05-19 07:08:34 51°14.266 2°55.277 320.2 11.3 314 11.3
2005-05-19 07:08:39 51°14.276 2°55.257 317.4 11.3 313 11.4
2005-05-19 07:08:43 51°14.286 2°55.24 315.9 11.5 311 11.4
2005-05-19 07:08:49 51°14.297 2°55.218 315.8 11.5 311 11.4
2005-05-19 07:08:53 51°14.305 2°55.202 315.4 11.8 310 11.2
2005-05-19 07:08:59 51°14.317 2°55.177 313.2 11.8 310 11.2
2005-05-19 07:09:03 51°14.326 2°55.158 311.6 11.8 310 11.3
2005-05-19 07:09:09 51°14.337 2°55.134 310.8 11.9 306 11.3
2005-05-19 07:09:13 51°14.346 2°55.115 310 12 306 11.3
2005-05-19 07:09:19 51°14.357 2°55.091 309.5 12 305 11.3
2005-05-19 07:09:24 51°14.367 2°55.07 309.9 12.1 308 11.4
2005-05-19 07:09:29 51°14.378 2°55.051 312 12.1 308 11.3
2005-05-19 07:09:34 51°14.391 2°55.033 315.1 12 317 11.3
2005-05-19 07:09:39 51°14.404 2°55.016 319.3 12.3 320 11.8
2005-05-19 07:09:43 51°14.417 2°55.001 321 12.5 322 11.4
2005-05-19 07:09:49 51°14.432 2°54.981 321.3 12.7 321 11.3
2005-05-19 07:09:54 51°14.445 2°54.962 320.1 12.7 321 11.4
2005-05-19 07:09:59 51°14.459 2°54.943 319.1 12.9 319 11.4
2005-05-19 07:10:03 51°14.471 2°54.926 318.6 13.1 318 11.4
2005-05-19 07:10:09 51°14.486 2°54.904 318 13.1 318 11.3
2005-05-19 07:10:13 51°14.498 2°54.886 317.8 13.1 318 11.4
2005-05-19 07:10:19 51°14.514 2°54.862 317.3 13.2 316 11.3
2005-05-19 07:10:23 51°14.524 2°54.845 316.1 13.2 316 11.3
2005-05-19 07:10:29 51°14.538 2°54.822 315.2 13.2 316 11.2
2005-05-19 07:10:34 51°14.55 2°54.801 314.5 13.3 314 11.2
2005-05-19 07:10:39 51°14.563 2°54.78 314.1 13.3 313 11.2
2005-05-19 07:10:44 51°14.575 2°54.758 313.4 13.3 312 11.2
2005-05-19 07:10:49 51°14.587 2°54.735 311.8 13.3 310 11.1
2005-05-19 07:10:54 51°14.598 2°54.712 310.6 13.3 310 11.1
2005-05-19 07:10:59 51°14.611 2°54.687 309.6 13.2 309 11
2005-05-19 07:11:03 51°14.62 2°54.669 309.1 13.2 309 11.1
2005-05-19 07:11:09 51°14.633 2°54.644 308.6 13.2 308 11
2005-05-19 07:11:14 51°14.644 2°54.62 308.4 13.3 309 11
2005-05-19 07:11:19 51°14.656 2°54.598 308.4 13.3 309 11.1
2005-05-19 07:11:23 51°14.666 2°54.577 308.5 13.3 309 11.1
2005-05-19 07:11:29 51°14.679 2°54.552 308.5 13.3 309 11.1
2005-05-19 07:11:34 51°14.691 2°54.528 308.5 13.3 308 11.1
2005-05-19 07:11:39 51°14.701 2°54.505 308.4 13.3 308 11.1
2005-05-19 07:11:43 51°14.712 2°54.484 307.6 13.3 307 11.1
2005-05-19 07:11:49 51°14.723 2°54.458 306.6 13.3 307 11.3
2005-05-19 07:11:53 51°14.731 2°54.438 306 13.3 307 11.3
2005-05-19 07:11:59 51°14.744 2°54.409 305.5 13.2 303 11.2
2005-05-19 07:12:03 51°14.752 2°54.387 304.6 13.2 304 11.3
2005-05-19 07:12:09 51°14.764 2°54.36 304.4 13.2 303 11.2
2005-05-19 07:12:13 51°14.773 2°54.338 304.4 13.2 304 11.2
2005-05-19 07:12:19 51°14.784 2°54.312 304.8 13.2 304 11.2
2005-05-19 07:12:23 51°14.793 2°54.29 305.3 13.2 305 11.2
2005-05-19 07:12:29 51°14.804 2°54.262 304.8 13.2 304 11.2
2005-05-19 07:12:34 51°14.813 2°54.237 302.5 13.2 301 11.1
2005-05-19 07:12:39 51°14.822 2°54.209 301.2 13.2 301 11.1
2005-05-19 07:12:44 51°14.83 2°54.186 300.1 13.2 301 11.1
2005-05-19 07:12:49 51°14.838 2°54.16 299 13.1 297 11
2005-05-19 07:12:53 51°14.845 2°54.137 298.3 13.1 297 10.9
2005-05-19 07:12:59 51°14.854 2°54.109 297.9 13.1 296 10.7
2005-05-19 07:13:03 51°14.861 2°54.085 297.5 13.1 296 10.7
2005-05-19 07:13:09 51°14.87 2°54.057 297.1 13.1 296 10.8
2005-05-19 07:13:14 51°14.878 2°54.03 297.1 13.1 296 10.7
2005-05-19 07:13:19 51°14.886 2°54.005 297 13.1 296 10.7
2005-05-19 07:13:23 51°14.893 2°53.981 297 13.1 296 10.8
2005-05-19 07:13:29 51°14.902 2°53.953 297.3 13.1 296 10.8
2005-05-19 07:13:33 51°14.91 2°53.93 297.7 13.1 296 10.8
2005-05-19 07:13:39 51°14.919 2°53.901 298.1 13.1 297 10.8
2005-05-19 07:13:43 51°14.926 2°53.878 298.2 13.1 297 10.8
2005-05-19 07:13:49 51°14.935 2°53.849 297.9 13.1 296 10.8
2005-05-19 07:13:52 51°14.94 2°53.831 297.5 13.1 296 10.8
2005-05-19 07:13:59 51°14.952 2°53.795 297.5 13.1 296 10.9
2005-05-19 07:14:03 51°14.958 2°53.774 297.5 13.1 296 11
2005-05-19 07:14:08 51°14.967 2°53.748 297.8 13.2 297 11
2005-05-19 07:14:13 51°14.974 2°53.724 298.2 13.2 297 11.1
2005-05-19 07:14:19 51°14.985 2°53.693 298.5 13.2 297 11.1
2005-05-19 07:14:23 51°14.992 2°53.67 298.7 13.2 297 11
2005-05-19 07:14:28 51°15 2°53.644 298.6 13.2 297 11.1
2005-05-19 07:14:33 51°15.009 2°53.618 298.2 13.2 297 11.1
2005-05-19 07:14:39 51°15.018 2°53.59 298.1 13.2 297 11.2
2005-05-19 07:14:43 51°15.025 2°53.566 297.9 13.2 297 11.2
2005-05-19 07:14:49 51°15.033 2°53.537 297.3 13.2 295 11.1
2005-05-19 07:14:54 51°15.042 2°53.508 296.6 13.2 295 11.2
2005-05-19 07:14:59 51°15.048 2°53.484 296.1 13.2 295 11.2
2005-05-19 07:15:03 51°15.055 2°53.46 295.4 13.2 294 11.2
2005-05-19 07:15:09 51°15.062 2°53.43 294.6 13.2 293 11.2
2005-05-19 07:15:14 51°15.069 2°53.404 294 13.1 293 11.3
2005-05-19 07:15:19 51°15.076 2°53.374 293.3 13.1 293 11.3
2005-05-19 07:15:23 51°15.081 2°53.352 292.1 13.1 290 11.5
2005-05-19 07:15:29 51°15.087 2°53.323 291.6 13.1 290 11.3
2005-05-19 07:15:34 51°15.093 2°53.295 291 13.1 290 11.3
2005-05-19 07:15:39 51°15.1 2°53.265 290.3 13.1 290 11.5
2005-05-19 07:15:44 51°15.105 2°53.241 290.1 13.1 290 11.4
2005-05-19 07:15:49 51°15.111 2°53.213 290.1 13 289 11.4
2005-05-19 07:15:54 51°15.117 2°53.186 289.9 13 289 11.6
2005-05-19 07:15:59 51°15.123 2°53.159 289.9 13 289 11.6
2005-05-19 07:16:04 51°15.129 2°53.129 289.9 13 289 11.7
2005-05-19 07:16:09 51°15.135 2°53.104 289.9 13 289 11.4
2005-05-19 07:16:14 51°15.141 2°53.077 290.2 13.1 289 11.6
2005-05-19 07:16:19 51°15.147 2°53.049 290.2 13 289 11.6
2005-05-19 07:16:24 51°15.153 2°53.022 290.2 13 289 11.7
2005-05-19 07:16:29 51°15.159 2°52.995 290.3 13 289 11.7
2005-05-19 07:16:33 51°15.164 2°52.971 290.6 13 289 11.8
2005-05-19 07:16:39 51°15.171 2°52.94 290.8 13 289 11.8
2005-05-19 07:16:43 51°15.176 2°52.916 290 13 289 12
2005-05-19 07:16:49 51°15.182 2°52.886 288.7 13 287 12
2005-05-19 07:16:54 51°15.187 2°52.855 288.2 13 287 12
2005-05-19 07:16:59 51°15.192 2°52.828 287.4 13 286 12.1
2005-05-19 07:17:03 51°15.196 2°52.806 287.2 13 286 12.2
2005-05-19 07:17:09 51°15.202 2°52.775 286.6 13 285 12.2
2005-05-19 07:17:13 51°15.206 2°52.753 286.6 13 286 12.2
2005-05-19 07:17:19 51°15.212 2°52.72 286.6 12.9 285 12.3
2005-05-19 07:17:23 51°15.216 2°52.695 286.5 12.9 285 12.3
2005-05-19 07:17:29 51°15.221 2°52.664 286.3 13 285 12.3
2005-05-19 07:17:34 51°15.225 2°52.637 286 12.9 284 12.5
2005-05-19 07:17:39 51°15.231 2°52.606 285.9 12.9 284 12.4
2005-05-19 07:17:43 51°15.234 2°52.584 286.1 13 285 12.4
2005-05-19 07:17:48 51°15.239 2°52.557 286.2 13 285 12.5
2005-05-19 07:17:53 51°15.244 2°52.529 286.6 13 286 12.4
2005-05-19 07:17:59 51°15.25 2°52.496 286.9 13 286 12.5
2005-05-19 07:18:04 51°15.255 2°52.471 287.1 12.9 286 12.6
2005-05-19 07:18:09 51°15.26 2°52.443 287.3 13 287 12.6
2005-05-19 07:18:14 51°15.264 2°52.416 287.4 13 287 12.7
2005-05-19 07:18:19 51°15.269 2°52.388 287.2 12.9 286 12.7
2005-05-19 07:18:23 51°15.273 2°52.363 286.7 12.9 286 12.7
2005-05-19 07:18:29 51°15.279 2°52.333 286.2 12.9 286 12.8
2005-05-19 07:18:33 51°15.282 2°52.311 286.2 12.9 286 12.9
2005-05-19 07:18:39 51°15.288 2°52.278 286.6 12.9 285 12.9
2005-05-19 07:18:43 51°15.292 2°52.254 286.6 12.9 285 13
2005-05-19 07:18:49 51°15.297 2°52.223 286.6 12.9 285 13
2005-05-19 07:18:54 51°15.301 2°52.195 285.9 12.9 285 13.1
2005-05-19 07:18:59 51°15.305 2°52.167 285.2 12.9 285 13.2
2005-05-19 07:19:03 51°15.309 2°52.142 284.7 12.9 283 13.2
2005-05-19 07:19:09 51°15.313 2°52.112 284.3 12.9 283 13.3
2005-05-19 07:19:13 51°15.316 2°52.089 283.9 12.9 282 13.3
2005-05-19 07:19:19 51°15.32 2°52.054 283 12.9 282 13.4
2005-05-19 07:19:23 51°15.323 2°52.031 282.6 12.9 281 13.4
2005-05-19 07:19:28 51°15.326 2°52.003 282 12.9 281 13.4
2005-05-19 07:19:33 51°15.329 2°51.978 281.8 12.9 281 13.5
2005-05-19 07:19:39 51°15.333 2°51.942 281.5 12.9 281 13.6
2005-05-19 07:19:43 51°15.336 2°51.919 281.5 12.9 280 13.5
2005-05-19 07:19:49 51°15.339 2°51.888 281.6 12.9 280 13.5
2005-05-19 07:19:53 51°15.342 2°51.863 281.6 12.9 281 13.5
2005-05-19 07:19:59 51°15.346 2°51.833 281.6 12.9 281 13.6
2005-05-19 07:20:04 51°15.349 2°51.804 281.6 12.9 281 13.6
2005-05-19 07:20:09 51°15.353 2°51.776 281.6 12.9 281 13.6
2005-05-19 07:20:13 51°15.355 2°51.751 281.6 12.9 281 13.7
2005-05-19 07:20:19 51°15.36 2°51.721 281.8 12.9 281 13.7
2005-05-19 07:20:24 51°15.363 2°51.693 282 12.9 281 13.8
2005-05-19 07:20:28 51°15.366 2°51.668 282.3 12.9 281 13.8
2005-05-19 07:20:33 51°15.369 2°51.64 282 12.9 281 13.9
2005-05-19 07:20:39 51°15.373 2°51.609 281.7 12.9 281 13.7
2005-05-19 07:20:44 51°15.376 2°51.582 281.8 12.9 281 13.7
2005-05-19 07:20:48 51°15.379 2°51.557 281.8 12.9 281 13.8
2005-05-19 07:20:53 51°15.381 2°51.531 281 12.8 279 13.8
2005-05-19 07:20:59 51°15.382 2°51.498 277.8 12.8 277 13.8
2005-05-19 07:21:03 51°15.382 2°51.473 275.1 12.7 272 13.8
2005-05-19 07:21:09 51°15.382 2°51.442 272.7 12.7 269 13.8
2005-05-19 07:21:13 51°15.381 2°51.419 271.4 12.7 270 14
2005-05-19 07:21:19 51°15.38 2°51.383 270.2 12.7 270 13.9
2005-05-19 07:21:23 51°15.379 2°51.36 269.4 12.7 268 13.9
2005-05-19 07:21:27 51°15.379 2°51.338 269 12.7 267 14
2005-05-19 07:21:34 51°15.377 2°51.302 268.5 12.7 267 14
2005-05-19 07:21:39 51°15.376 2°51.274 267.9 12.7 266 14.1
2005-05-19 07:21:43 51°15.375 2°51.249 267.8 12.7 266 14
2005-05-19 07:21:49 51°15.375 2°51.218 268.5 12.7 268 14.1
2005-05-19 07:21:53 51°15.374 2°51.196 269.4 12.7 268 14
2005-05-19 07:21:59 51°15.374 2°51.162 269.9 12.7 268 13.9
2005-05-19 07:22:03 51°15.374 2°51.136 270.7 12.7 268 14.1
2005-05-19 07:22:09 51°15.374 2°51.105 270.8 12.7 269 14.1
2005-05-19 07:22:13 51°15.373 2°51.08 271 12.7 269 14.1
2005-05-19 07:22:19 51°15.373 2°51.049 271 12.7 269 14.1
2005-05-19 07:22:24 51°15.373 2°51.021 270.8 12.7 269 14.1
2005-05-19 07:22:29 51°15.373 2°50.993 270.7 12.7 270 14.1
2005-05-19 07:22:34 51°15.373 2°50.965 271 12.7 271 14.2
2005-05-19 07:22:39 51°15.373 2°50.934 271.1 12.7 271 14.2
2005-05-19 07:22:44 51°15.373 2°50.908 271.4 12.7 271 14.1
2005-05-19 07:22:49 51°15.373 2°50.88 271.5 12.7 271 14.2
2005-05-19 07:22:53 51°15.373 2°50.858 271.8 12.7 271 14.3
2005-05-19 07:22:59 51°15.374 2°50.824 271.9 12.7 271 14.2
2005-05-19 07:23:03 51°15.374 2°50.799 272.1 12.7 271 14.1
2005-05-19 07:23:08 51°15.374 2°50.771 271.8 12.7 271 14.2
2005-05-19 07:23:14 51°15.375 2°50.737 271.9 12.7 271 14.2
2005-05-19 07:23:19 51°15.374 2°50.712 271.7 12.7 271 14.3
2005-05-19 07:23:24 51°15.375 2°50.683 271.7 12.7 271 14.3
2005-05-19 07:23:29 51°15.375 2°50.653 271.5 12.7 271 14.4
2005-05-19 07:23:33 51°15.375 2°50.63 271.4 12.7 270 14.3
2005-05-19 07:23:39 51°15.375 2°50.596 271.4 12.7 271 14.3
2005-05-19 07:23:43 51°15.375 2°50.574 271 12.7 271 14.4
2005-05-19 07:23:48 51°15.375 2°50.549 270.3 12.6 270 14.4
2005-05-19 07:23:53 51°15.374 2°50.521 269.8 12.6 269 14.3
2005-05-19 07:23:59 51°15.374 2°50.487 270 12.6 269 14.4
2005-05-19 07:24:04 51°15.374 2°50.459 269.8 12.6 269 14.3
2005-05-19 07:24:09 51°15.373 2°50.432 269.4 12.6 268 14.3
2005-05-19 07:24:14 51°15.373 2°50.404 269.2 12.6 268 14.4
2005-05-19 07:24:19 51°15.372 2°50.373 269 12.6 268 14.4
2005-05-19 07:24:23 51°15.372 2°50.351 269.1 12.6 268 14.3
2005-05-19 07:24:29 51°15.371 2°50.32 269.1 12.6 268 14.3
2005-05-19 07:24:33 51°15.37 2°50.295 269.2 12.6 268 14.3
2005-05-19 07:24:39 51°15.37 2°50.262 269.2 12.6 268 14.4
2005-05-19 07:24:44 51°15.37 2°50.237 269.7 12.6 269 14.4
2005-05-19 07:24:49 51°15.369 2°50.209 269.6 12.6 268 14.4
2005-05-19 07:24:54 51°15.369 2°50.181 269.6 12.6 269 14.4
2005-05-19 07:24:59 51°15.369 2°50.153 269.6 12.6 268 14.4
2005-05-19 07:25:03 51°15.368 2°50.128 269.3 12.6 269 14.5
2005-05-19 07:25:09 51°15.368 2°50.097 269.4 12.6 268 14.4
2005-05-19 07:25:14 51°15.367 2°50.07 269.7 12.6 268 14.5
2005-05-19 07:25:19 51°15.367 2°50.039 269.8 12.6 268 14.4
2005-05-19 07:25:23 51°15.367 2°50.017 270.1 12.6 270 14.4
2005-05-19 07:25:29 51°15.367 2°49.986 269.8 12.6 270 14.4
2005-05-19 07:25:34 51°15.366 2°49.956 269.7 12.6 270 14.4
2005-05-19 07:25:39 51°15.366 2°49.928 269.6 12.6 270 14.4
2005-05-19 07:25:43 51°15.365 2°49.906 269.6 12.6 269 14.4
2005-05-19 07:25:49 51°15.365 2°49.875 269.6 12.6 269 14.5
2005-05-19 07:25:54 51°15.365 2°49.848 269.8 12.6 269 14.4
2005-05-19 07:25:59 51°15.365 2°49.82 269.7 12.6 269 14.4
2005-05-19 07:26:03 51°15.364 2°49.795 270 12.6 269 14.4
2005-05-19 07:26:08 51°15.364 2°49.77 269.9 12.6 269 14.5
2005-05-19 07:26:14 51°15.363 2°49.734 269.9 12.6 269 14.5
2005-05-19 07:26:19 51°15.363 2°49.709 269.8 12.6 269 14.5
2005-05-19 07:26:24 51°15.363 2°49.681 270.4 12.6 269 14.5
2005-05-19 07:26:29 51°15.363 2°49.653 270 12.6 269 14.5
2005-05-19 07:26:33 51°15.362 2°49.628 269.8 12.6 269 14.5
2005-05-19 07:26:39 51°15.362 2°49.598 270.2 12.5 269 14.5
2005-05-19 07:26:43 51°15.362 2°49.573 270 12.5 269 14.5
2005-05-19 07:26:49 51°15.361 2°49.542 270 12.6 269 14.4
2005-05-19 07:26:53 51°15.361 2°49.52 270 12.6 269 14.5
2005-05-19 07:26:59 51°15.36 2°49.484 270.4 12.5 269 14.6
2005-05-19 07:27:04 51°15.36 2°49.459 270 12.5 269 14.5
2005-05-19 07:27:09 51°15.359 2°49.432 269.7 12.6 268 14.5
2005-05-19 07:27:13 51°15.359 2°49.41 270 12.6 268 14.5
2005-05-19 07:27:19 51°15.358 2°49.374 269.9 12.6 268 14.5
2005-05-19 07:27:23 51°15.357 2°49.351 269.8 12.6 267 14.6
2005-05-19 07:27:29 51°15.356 2°49.321 269.8 12.6 267 14.6
2005-05-19 07:27:33 51°15.356 2°49.296 269.7 12.6 267 14.6
2005-05-19 07:27:39 51°15.355 2°49.265 269.6 12.6 268 14.5
2005-05-19 07:27:44 51°15.355 2°49.235 269.4 12.6 268 14.6
2005-05-19 07:27:49 51°15.354 2°49.21 269.8 12.6 269 14.7
2005-05-19 07:27:54 51°15.354 2°49.182 270 12.6 268 14.7
2005-05-19 07:27:57 51°15.353 2°49.165 270 12.6 268 14.5
2005-05-19 07:28:04 51°15.352 2°49.124 270 12.6 268 14.6
2005-05-19 07:28:09 51°15.352 2°49.096 270 12.6 267 14.6
2005-05-19 07:28:14 51°15.351 2°49.071 270 12.6 269 14.7
2005-05-19 07:28:19 51°15.35 2°49.044 269.5 12.6 269 14.6
2005-05-19 07:28:23 51°15.35 2°49.018 269.9 12.6 269 14.6
2005-05-19 07:28:29 51°15.35 2°48.988 270.4 12.6 269 14.7
2005-05-19 07:28:33 51°15.35 2°48.966 270.7 12.6 269 14.6
2005-05-19 07:28:39 51°15.349 2°48.93 270.6 12.6 269 14.6
2005-05-19 07:28:43 51°15.348 2°48.907 270.4 12.6 269 14.6
2005-05-19 07:28:49 51°15.348 2°48.877 269.8 12.6 268 14.6
2005-05-19 07:28:54 51°15.347 2°48.849 270.1 12.6 269 14.6
2005-05-19 07:28:59 51°15.347 2°48.821 270.1 12.6 269 14.5
2005-05-19 07:29:03 51°15.346 2°48.797 270 12.6 269 14.5
2005-05-19 07:29:09 51°15.345 2°48.764 269.9 12.6 269 14.5
2005-05-19 07:29:14 51°15.345 2°48.739 270 12.6 269 14.4
2005-05-19 07:29:19 51°15.344 2°48.708 270 12.6 268 14.4
2005-05-19 07:29:24 51°15.343 2°48.683 269.4 12.6 267 14.2
2005-05-19 07:29:27 51°15.343 2°48.664 269.7 12.6 269 14.1
2005-05-19 07:29:33 51°15.342 2°48.631 269.9 12.6 268 14
2005-05-19 07:29:39 51°15.342 2°48.6 270.1 12.6 268 13.9
2005-05-19 07:29:43 51°15.342 2°48.575 270.2 12.6 268 13.8
2005-05-19 07:29:49 51°15.341 2°48.545 270.1 12.6 268 13.5
2005-05-19 07:29:53 51°15.341 2°48.52 270.4 12.6 270 13.4
2005-05-19 07:29:59 51°15.34 2°48.49 270.7 12.6 270 13.3
2005-05-19 07:30:04 51°15.34 2°48.462 270.6 12.6 270 13.1
2005-05-19 07:30:09 51°15.34 2°48.434 270.5 12.5 269 12.9
2005-05-19 07:30:13 51°15.339 2°48.41 270.1 12.5 269 12.8
2005-05-19 07:30:19 51°15.339 2°48.379 269.7 12.5 268 12.6
2005-05-19 07:30:23 51°15.338 2°48.354 269.9 12.6 268 12.6
2005-05-19 07:30:29 51°15.338 2°48.324 269.8 12.5 269 12.5
2005-05-19 07:30:34 51°15.337 2°48.296 270 12.5 269 12.3
2005-05-19 07:30:39 51°15.337 2°48.269 270 12.5 269 12.2
2005-05-19 07:30:43 51°15.336 2°48.244 270 12.5 269 12.1
2005-05-19 07:30:49 51°15.336 2°48.213 270 12.5 269 12
2005-05-19 07:30:54 51°15.335 2°48.185 269.9 12.6 268 11.9
2005-05-19 07:30:59 51°15.335 2°48.158 269.9 12.5 269 11.9
2005-05-19 07:31:04 51°15.334 2°48.13 270 12.5 269 11.8
2005-05-19 07:31:09 51°15.334 2°48.102 270.4 12.6 269 11.7
2005-05-19 07:31:13 51°15.333 2°48.08 270.7 12.6 269 11.7
2005-05-19 07:31:19 51°15.333 2°48.047 270.5 12.6 269 11.7
2005-05-19 07:31:24 51°15.332 2°48.019 270.2 12.6 269 11.6
2005-05-19 07:31:29 51°15.332 2°47.992 270.1 12.5 269 11.7
2005-05-19 07:31:33 51°15.331 2°47.969 270.4 12.5 268 11.7
2005-05-19 07:31:39 51°15.331 2°47.936 270.4 12.6 268 11.7
2005-05-19 07:31:43 51°15.331 2°47.911 270.6 12.6 268 11.6
2005-05-19 07:31:49 51°15.33 2°47.88 270.3 12.6 268 11.7
2005-05-19 07:31:54 51°15.33 2°47.853 270.4 12.6 269 11.7
2005-05-19 07:31:59 51°15.329 2°47.825 270.2 12.5 268 11.6
2005-05-19 07:32:03 51°15.328 2°47.8 270 12.6 268 11.7
2005-05-19 07:32:09 51°15.328 2°47.77 269.8 12.6 268 11.7
2005-05-19 07:32:13 51°15.328 2°47.745 270 12.5 269 11.7
2005-05-19 07:32:19 51°15.327 2°47.712 270.4 12.5 269 11.7
2005-05-19 07:32:23 51°15.327 2°47.69 270.4 12.6 268 11.7
2005-05-19 07:32:29 51°15.326 2°47.659 270.6 12.5 269 11.7
2005-05-19 07:32:34 51°15.326 2°47.631 270.7 12.6 269 11.8
2005-05-19 07:32:39 51°15.326 2°47.604 270.7 12.5 269 11.8
2005-05-19 07:32:43 51°15.325 2°47.579 270.7 12.5 269 11.8
2005-05-19 07:32:49 51°15.325 2°47.548 270.5 12.5 269 11.8
2005-05-19 07:32:54 51°15.324 2°47.52 270.5 12.5 268 11.9
2005-05-19 07:32:59 51°15.324 2°47.493 270.1 12.5 268 11.9
2005-05-19 07:33:03 51°15.324 2°47.468 270.3 12.5 269 12
2005-05-19 07:33:09 51°15.323 2°47.438 270.4 12.5 269 12
2005-05-19 07:33:13 51°15.323 2°47.412 270.3 12.5 268 12.1
2005-05-19 07:33:19 51°15.322 2°47.382 270.1 12.5 269 12.2
2005-05-19 07:33:24 51°15.322 2°47.354 270 12.5 269 12.2
2005-05-19 07:33:28 51°15.321 2°47.33 270 12.5 269 12.4
2005-05-19 07:33:34 51°15.321 2°47.299 270.2 12.5 268 12.3
2005-05-19 07:33:39 51°15.32 2°47.268 270.3 12.5 268 12.4
2005-05-19 07:33:44 51°15.32 2°47.243 270.3 12.5 269 12.6
2005-05-19 07:33:49 51°15.32 2°47.216 270.6 12.5 269 12.7
2005-05-19 07:33:53 51°15.32 2°47.191 270.7 12.6 269 12.7
2005-05-19 07:33:59 51°15.319 2°47.16 270.7 12.5 269 12.8
2005-05-19 07:34:03 51°15.319 2°47.135 270.7 12.5 269 13
2005-05-19 07:34:09 51°15.318 2°47.105 270.8 12.5 268 13
2005-05-19 07:34:14 51°15.318 2°47.077 270.4 12.5 268 13.2
2005-05-19 07:34:19 51°15.318 2°47.05 270.4 12.5 269 13.3
2005-05-19 07:34:23 51°15.317 2°47.025 270.2 12.5 269 13.3
2005-05-19 07:34:29 51°15.317 2°46.994 270.4 12.5 269 13.3
2005-05-19 07:34:34 51°15.316 2°46.967 270.2 12.5 268 13.4
2005-05-19 07:34:39 51°15.316 2°46.939 270.2 12.5 269 13.5
2005-05-19 07:34:44 51°15.316 2°46.911 270.4 12.5 269 13.6
2005-05-19 07:34:49 51°15.315 2°46.884 270 12.5 268 13.6
2005-05-19 07:34:54 51°15.315 2°46.856 270 12.5 268 13.9
2005-05-19 07:34:59 51°15.314 2°46.826 270 12.5 268 13.9
2005-05-19 07:35:03 51°15.314 2°46.804 270 12.5 269 13.9
2005-05-19 07:35:09 51°15.314 2°46.773 270 12.4 268 14
2005-05-19 07:35:14 51°15.313 2°46.746 269.9 12.4 268 14
2005-05-19 07:35:19 51°15.313 2°46.719 270 12.5 268 14.3
2005-05-19 07:35:23 51°15.312 2°46.694 270.3 12.5 268 14.5
2005-05-19 07:35:28 51°15.312 2°46.666 270.1 12.5 268 14.4
2005-05-19 07:35:33 51°15.312 2°46.641 270.7 12.5 268 14.6
2005-05-19 07:35:39 51°15.312 2°46.608 270.3 12.4 268 14.8
2005-05-19 07:35:43 51°15.311 2°46.583 270.7 12.5 269 14.8
2005-05-19 07:35:49 51°15.311 2°46.553 270.7 12.4 269 14.8
2005-05-19 07:35:53 51°15.311 2°46.531 270.6 12.5 270 15.1
2005-05-19 07:35:59 51°15.311 2°46.495 270.7 12.4 269 15.2
2005-05-19 07:36:03 51°15.311 2°46.473 270.5 12.4 269 15.2
2005-05-19 07:36:09 51°15.311 2°46.443 270.5 12.5 269 15.4
2005-05-19 07:36:13 51°15.31 2°46.418 270.4 12.4 269 15.5
2005-05-19 07:36:19 51°15.31 2°46.388 270 12.4 268 15.6
2005-05-19 07:36:23 51°15.309 2°46.363 269.9 12.5 268 15.8
2005-05-19 07:36:29 51°15.309 2°46.332 269.9 12.5 268 15.8
2005-05-19 07:36:34 51°15.309 2°46.305 270.4 12.5 270 15.9
2005-05-19 07:36:39 51°15.309 2°46.277 270.6 12.4 269 16
2005-05-19 07:36:44 51°15.309 2°46.25 270.4 12.5 270 16.1
2005-05-19 07:36:49 51°15.309 2°46.222 270.6 12.5 269 16.1
2005-05-19 07:36:54 51°15.308 2°46.195 270.5 12.5 270 16.1
2005-05-19 07:36:59 51°15.308 2°46.167 270.4 12.5 268 16.3
2005-05-19 07:37:03 51°15.308 2°46.142 270.6 12.5 268 16.4
2005-05-19 07:37:09 51°15.308 2°46.109 270.7 12.5 270 16.5
2005-05-19 07:37:14 51°15.308 2°46.084 270.7 12.5 270 16.6
2005-05-19 07:37:19 51°15.308 2°46.056 270.7 12.5 270 16.7
2005-05-19 07:37:23 51°15.308 2°46.032 270.7 12.5 269 16.7
2005-05-19 07:37:29 51°15.307 2°46.001 270.5 12.5 269 16.8
2005-05-19 07:37:34 51°15.307 2°45.974 270.3 12.5 268 16.8
2005-05-19 07:37:39 51°15.307 2°45.943 269.9 12.5 268 16.9
2005-05-19 07:37:43 51°15.307 2°45.921 270.3 12.4 270 17
2005-05-19 07:37:48 51°15.306 2°45.894 270.1 12.4 270 17
2005-05-19 07:37:53 51°15.307 2°45.866 270.3 12.4 270 17.1
2005-05-19 07:37:59 51°15.306 2°45.835 270.7 12.5 270 17.2
2005-05-19 07:38:03 51°15.306 2°45.811 270.5 12.5 270 17.2
2005-05-19 07:38:09 51°15.306 2°45.78 270 12.4 268 17.4
2005-05-19 07:38:14 51°15.305 2°45.753 270 12.4 268 17.4
2005-05-19 07:38:19 51°15.305 2°45.722 269.5 12.4 268 17.4
2005-05-19 07:38:23 51°15.305 2°45.7 269.2 12.4 269 17.5
2005-05-19 07:38:29 51°15.304 2°45.67 269.5 12.5 269 17.5
2005-05-19 07:38:33 51°15.303 2°45.648 269.6 12.3 268 17.6
2005-05-19 07:38:39 51°15.3 2°45.617 268.1 12.2 263 17.6
2005-05-19 07:38:43 51°15.295 2°45.594 262.2 12.1 259 17.6
2005-05-19 07:38:49 51°15.288 2°45.568 256.2 11.9 251 17.8
2005-05-19 07:38:54 51°15.28 2°45.545 250.1 11.7 245 17.8
2005-05-19 07:38:59 51°15.273 2°45.522 244.5 11.8 241 17.8
2005-05-19 07:39:03 51°15.266 2°45.501 244.4 11.8 241 17.9
2005-05-19 07:39:09 51°15.258 2°45.475 245.3 11.8 241 17.9
2005-05-19 07:39:13 51°15.252 2°45.455 246.2 12 245 18.1
2005-05-19 07:39:19 51°15.244 2°45.426 247 12 245 18.1
2005-05-19 07:39:24 51°15.237 2°45.402 247.5 12 245 18.1
2005-05-19 07:39:29 51°15.231 2°45.377 248.2 12 247 18.1
2005-05-19 07:39:33 51°15.228 2°45.353 251 12.1 249 18.1
2005-05-19 07:39:39 51°15.225 2°45.324 256.4 12.2 257 18.2
2005-05-19 07:39:43 51°15.224 2°45.3 261.2 12.1 260 18.4
2005-05-19 07:39:48 51°15.222 2°45.273 264.1 12.2 264 18.3
2005-05-19 07:39:53 51°15.222 2°45.249 267.2 12.3 266 18.4
2005-05-19 07:39:59 51°15.222 2°45.214 268.6 12.3 269 18.5
2005-05-19 07:40:03 51°15.222 2°45.192 269.7 12.3 271 18.6
2005-05-19 07:40:09 51°15.222 2°45.162 271.1 12.4 271 18.7
2005-05-19 07:40:13 51°15.223 2°45.137 272 12.4 271 18.8
2005-05-19 07:40:19 51°15.224 2°45.105 272.6 12.4 273 18.9
2005-05-19 07:40:23 51°15.225 2°45.083 272.8 12.4 273 19
2005-05-19 07:40:29 51°15.225 2°45.052 273 12.5 272 19
2005-05-19 07:40:34 51°15.226 2°45.025 273.1 12.5 273 19.1
2005-05-19 07:40:39 51°15.227 2°44.995 273.4 12.5 273 19.1
2005-05-19 07:40:44 51°15.228 2°44.97 273.2 12.5 272 19.2
2005-05-19 07:40:48 51°15.228 2°44.946 273.1 12.4 271 19.4
2005-05-19 07:40:53 51°15.228 2°44.921 272.3 12.4 271 19.5
2005-05-19 07:40:59 51°15.228 2°44.888 272.2 12.4 271 19.6
2005-05-19 07:41:03 51°15.228 2°44.863 272.1 12.5 271 19.7
2005-05-19 07:41:09 51°15.229 2°44.833 272.1 12.5 270 19.8
2005-05-19 07:41:14 51°15.229 2°44.805 272.1 12.5 271 19.9
2005-05-19 07:41:19 51°15.229 2°44.778 272.2 12.5 271 19.9
2005-05-19 07:41:23 51°15.23 2°44.753 272.4 12.5 271 19.7
2005-05-19 07:41:29 51°15.23 2°44.723 272.6 12.5 271 19.9
2005-05-19 07:41:33 51°15.23 2°44.701 272.9 12.5 271 20
2005-05-19 07:41:39 51°15.231 2°44.668 272.6 12.5 272 20
2005-05-19 07:41:43 51°15.232 2°44.643 272.8 12.5 272 19.9
2005-05-19 07:41:49 51°15.233 2°44.612 274 12.5 272 19.9
2005-05-19 07:41:54 51°15.234 2°44.584 274.8 12.5 272 19.9
2005-05-19 07:41:59 51°15.235 2°44.557 274.9 12.6 274 19.9
2005-05-19 07:42:03 51°15.237 2°44.532 275.4 12.6 274 19.9
2005-05-19 07:42:09 51°15.238 2°44.501 275.7 12.6 275 19.8
2005-05-19 07:42:14 51°15.24 2°44.474 275.5 12.5 273 19.7
2005-05-19 07:42:19 51°15.241 2°44.443 275.7 12.5 273 19.5
2005-05-19 07:42:23 51°15.243 2°44.421 276.4 12.6 275 19.5
2005-05-19 07:42:29 51°15.245 2°44.39 277.2 12.6 275 19.3
2005-05-19 07:42:34 51°15.247 2°44.363 277.2 12.6 275 19
2005-05-19 07:42:39 51°15.249 2°44.332 277.5 12.6 277 19
2005-05-19 07:42:43 51°15.251 2°44.31 277.9 12.6 276 18.8
2005-05-19 07:42:49 51°15.253 2°44.28 277.9 12.6 276 18.5
2005-05-19 07:42:53 51°15.255 2°44.258 277.9 12.6 277 18.2
2005-05-19 07:42:59 51°15.257 2°44.224 278.2 12.6 277 17.8
2005-05-19 07:43:03 51°15.259 2°44.2 277.9 12.6 277 17.6
2005-05-19 07:43:09 51°15.261 2°44.169 277.9 12.6 277 17.3
2005-05-19 07:43:14 51°15.264 2°44.142 277.9 12.5 277 17.1
2005-05-19 07:43:19 51°15.266 2°44.112 277.9 12.5 277 16.8
2005-05-19 07:43:24 51°15.268 2°44.087 278.1 12.5 277 16.3
2005-05-19 07:43:29 51°15.27 2°44.06 278.3 12.5 278 16.4
2005-05-19 07:43:34 51°15.273 2°44.032 278.1 12.5 277 16.3
2005-05-19 07:43:39 51°15.275 2°44.004 278 12.6 277 16.3
2005-05-19 07:43:43 51°15.277 2°43.98 278.1 12.6 277 16
2005-05-19 07:43:49 51°15.28 2°43.95 278.9 12.6 278 15.9
2005-05-19 07:43:53 51°15.282 2°43.927 279.6 12.6 279 15.7
2005-05-19 07:43:59 51°15.285 2°43.895 280 12.6 279 15.4
2005-05-19 07:44:03 51°15.288 2°43.87 280.4 12.6 279 15.3
2005-05-19 07:44:08 51°15.291 2°43.842 280.8 12.6 279 15.2
2005-05-19 07:44:13 51°15.294 2°43.815 280.6 12.6 280 15.1
2005-05-19 07:44:19 51°15.297 2°43.782 280.3 12.6 280 15.1
2005-05-19 07:44:24 51°15.3 2°43.757 280.4 12.6 280 15
2005-05-19 07:44:29 51°15.303 2°43.729 280.6 12.6 280 14.9
2005-05-19 07:44:34 51°15.306 2°43.702 280.8 12.7 280 14.9
2005-05-19 07:44:39 51°15.31 2°43.672 280.9 12.7 280 14.9
2005-05-19 07:44:44 51°15.312 2°43.647 281.2 12.7 280 14.8
2005-05-19 07:44:49 51°15.315 2°43.62 281 12.6 280 14.9
2005-05-19 07:44:54 51°15.318 2°43.592 280.8 12.7 280 14.9
2005-05-19 07:44:59 51°15.321 2°43.565 280.2 12.7 280 14.9
2005-05-19 07:45:03 51°15.323 2°43.54 279.2 12.6 278 15
2005-05-19 07:45:09 51°15.326 2°43.509 278.7 12.6 278 15.1
2005-05-19 07:45:13 51°15.327 2°43.487 278.5 12.6 278 15.1
2005-05-19 07:45:19 51°15.33 2°43.451 278.4 12.6 278 15.1
2005-05-19 07:45:23 51°15.332 2°43.429 277.9 12.6 276 15.2
2005-05-19 07:45:29 51°15.334 2°43.399 277.4 12.6 276 15.2
2005-05-19 07:45:33 51°15.336 2°43.377 277.5 12.6 276 15.2
2005-05-19 07:45:39 51°15.338 2°43.343 277.3 12.6 276 15.3
2005-05-19 07:45:44 51°15.34 2°43.316 277.3 12.6 276 15.2
2005-05-19 07:45:49 51°15.342 2°43.288 277.2 12.5 277 15
2005-05-19 07:45:54 51°15.344 2°43.258 277.3 12.5 277 14.2
2005-05-19 07:45:59 51°15.346 2°43.233 277.7 12.5 277 13.3
2005-05-19 07:46:03 51°15.349 2°43.208 278.2 12.5 277 14.5
2005-05-19 07:46:09 51°15.351 2°43.178 278.3 12.6 278 14.9
2005-05-19 07:46:13 51°15.353 2°43.153 278 12.6 277 15.1
2005-05-19 07:46:19 51°15.355 2°43.123 277.4 12.6 277 15.1
2005-05-19 07:46:23 51°15.357 2°43.098 277.5 12.7 277 15.2
2005-05-19 07:46:29 51°15.359 2°43.067 277.8 12.7 277 14.9
2005-05-19 07:46:33 51°15.361 2°43.045 277.7 12.6 276 15.2
2005-05-19 07:46:39 51°15.363 2°43.009 277.7 12.6 277 15
2005-05-19 07:46:43 51°15.365 2°42.987 277.4 12.6 277 15.3
2005-05-19 07:46:49 51°15.367 2°42.957 277.2 12.6 277 15
2005-05-19 07:46:54 51°15.369 2°42.929 278 12.7 277 15.2
2005-05-19 07:46:59 51°15.372 2°42.899 277.9 12.7 277 15.1
2005-05-19 07:47:03 51°15.373 2°42.876 278 12.6 278 14.8
2005-05-19 07:47:09 51°15.376 2°42.846 277.7 12.6 278 13.9
2005-05-19 07:47:13 51°15.378 2°42.821 277.5 12.6 277 14.1
2005-05-19 07:47:19 51°15.38 2°42.788 277.8 12.6 276 13.6
2005-05-19 07:47:23 51°15.381 2°42.765 277.6 12.6 277 12.8
2005-05-19 07:47:29 51°15.384 2°42.735 277.6 12.6 277 12.1
2005-05-19 07:47:34 51°15.386 2°42.708 277.4 12.6 277 13.3
2005-05-19 07:47:39 51°15.388 2°42.678 277.8 12.6 277 14
2005-05-19 07:47:44 51°15.39 2°42.652 278.1 12.6 277 14
2005-05-19 07:47:49 51°15.392 2°42.625 277.5 12.6 276 13.5
2005-05-19 07:47:54 51°15.394 2°42.597 277.9 12.6 277 12.9
2005-05-19 07:47:59 51°15.396 2°42.569 278.1 12.6 277 13.5
2005-05-19 07:48:04 51°15.399 2°42.542 278.1 12.6 277 13.4
2005-05-19 07:48:09 51°15.401 2°42.514 278 12.6 277 13.1
2005-05-19 07:48:13 51°15.402 2°42.492 277.7 12.5 276 12.3
2005-05-19 07:48:19 51°15.405 2°42.459 277.7 12.5 277 11.5
2005-05-19 07:48:23 51°15.406 2°42.435 277.9 12.5 277 13.4
2005-05-19 07:48:29 51°15.408 2°42.404 277.9 12.5 276 13.3
2005-05-19 07:48:33 51°15.411 2°42.379 277.4 12.6 275 13.3
2005-05-19 07:48:39 51°15.413 2°42.349 278.3 12.6 278 13
2005-05-19 07:48:44 51°15.416 2°42.321 278.9 12.6 277 12.6
2005-05-19 07:48:49 51°15.418 2°42.294 279.6 12.6 279 11.8
2005-05-19 07:48:54 51°15.422 2°42.267 280.8 12.6 279 13.2
2005-05-19 07:48:59 51°15.426 2°42.24 282.2 12.6 279 13.3
2005-05-19 07:49:03 51°15.429 2°42.215 282.8 12.6 279 13.1
2005-05-19 07:49:09 51°15.433 2°42.185 283.5 12.6 283 13
2005-05-19 07:49:14 51°15.437 2°42.158 283.8 12.6 283 12.4
2005-05-19 07:49:19 51°15.442 2°42.129 284.2 12.6 283 11.8
2005-05-19 07:49:23 51°15.446 2°42.107 285.2 12.6 283 10.6
2005-05-19 07:49:29 51°15.451 2°42.078 286.1 12.4 286 12.1
2005-05-19 07:49:33 51°15.456 2°42.057 287.8 12.5 287 12.4
2005-05-19 07:49:39 51°15.463 2°42.025 289.3 12.5 287 12.4
2005-05-19 07:49:43 51°15.469 2°42.002 290.2 12.7 289 12.2
2005-05-19 07:49:49 51°15.477 2°41.974 292.9 12.7 294 12.2
2005-05-19 07:49:53 51°15.483 2°41.954 294.3 12.7 293 12.2
2005-05-19 07:49:59 51°15.492 2°41.92 295.9 12.7 295 12.1
2005-05-19 07:50:04 51°15.5 2°41.898 296.2 12.7 294 11.9
2005-05-19 07:50:09 51°15.508 2°41.873 297.1 12.8 297 12.1
2005-05-19 07:50:13 51°15.515 2°41.853 297.7 12.8 297 12
2005-05-19 07:50:19 51°15.527 2°41.824 299.7 12.8 299 12
2005-05-19 07:50:23 51°15.535 2°41.802 301.9 12.9 304 12.1
2005-05-19 07:50:29 51°15.547 2°41.777 303.9 12.9 304 12.2
2005-05-19 07:50:33 51°15.556 2°41.756 305.4 13 306 12.2
2005-05-19 07:50:39 51°15.569 2°41.731 306.7 13 306 12.4
2005-05-19 07:50:44 51°15.579 2°41.708 307.8 13 306 12.3
2005-05-19 07:50:49 51°15.591 2°41.685 308.6 13 308 12.3
2005-05-19 07:50:54 51°15.603 2°41.66 308.8 13 308 12.4
2005-05-19 07:50:59 51°15.614 2°41.638 308.8 13 308 12.3
2005-05-19 07:51:03 51°15.623 2°41.62 308.9 13 308 12.5
2005-05-19 07:51:09 51°15.635 2°41.594 308 13 306 12.3
2005-05-19 07:51:14 51°15.646 2°41.571 307.7 13 307 12.4
2005-05-19 07:51:19 51°15.658 2°41.546 307.9 13 307 12.4
2005-05-19 07:51:23 51°15.666 2°41.527 307.3 13 307 12.6
2005-05-19 07:51:29 51°15.678 2°41.502 306.9 13 307 12.3
2005-05-19 07:51:33 51°15.686 2°41.484 306.9 13.1 307 12.5
2005-05-19 07:51:39 51°15.7 2°41.455 307.5 13 307 12.5
2005-05-19 07:51:43 51°15.71 2°41.435 307.6 13.1 307 12.8
2005-05-19 07:51:49 51°15.721 2°41.409 308 13.1 307 12.5
2005-05-19 07:51:53 51°15.731 2°41.391 307.9 13 307 13
2005-05-19 07:51:59 51°15.744 2°41.361 307.9 13.1 308 13
2005-05-19 07:52:04 51°15.755 2°41.34 307.9 13.1 308 13
2005-05-19 07:52:09 51°15.765 2°41.317 307.5 13.1 308 13.4
2005-05-19 07:52:13 51°15.775 2°41.296 307.2 13.1 306 13.4
2005-05-19 07:52:19 51°15.787 2°41.27 306.6 13.1 307 13.9
2005-05-19 07:52:23 51°15.797 2°41.249 306.7 13.1 307 13.9
2005-05-19 07:52:29 51°15.809 2°41.223 307 13.1 307 14.2
2005-05-19 07:52:33 51°15.818 2°41.205 307 13.1 307 14
2005-05-19 07:52:39 51°15.831 2°41.177 307.2 13.1 307 14.2
2005-05-19 07:52:43 51°15.841 2°41.156 307.3 13.1 308 14.7
2005-05-19 07:52:49 51°15.853 2°41.131 307.7 13.1 308 14.6
2005-05-19 07:52:54 51°15.864 2°41.107 307.5 13.2 307 15
2005-05-19 07:52:59 51°15.875 2°41.084 307.6 13.2 306 15.2
2005-05-19 07:53:03 51°15.885 2°41.063 307.3 13.2 306 15.7
2005-05-19 07:53:09 51°15.897 2°41.037 306.7 13.1 306 15.8
2005-05-19 07:53:14 51°15.908 2°41.014 306.9 13.2 308 16
2005-05-19 07:53:19 51°15.919 2°40.991 307 13.2 306 16.4
2005-05-19 07:53:24 51°15.93 2°40.968 307 13.2 306 16.8
2005-05-19 07:53:29 51°15.941 2°40.945 308.4 13.2 306 17.3
2005-05-19 07:53:33 51°15.951 2°40.928 308.9 13.2 310 17.5
2005-05-19 07:53:39 51°15.965 2°40.901 310 13.2 310 17.9
2005-05-19 07:53:43 51°15.976 2°40.881 310.7 13.3 310 18.2
2005-05-19 07:53:47 51°15.986 2°40.863 310.4 13.3 311 18.6
2005-05-19 07:53:53 51°16 2°40.836 310.7 13.3 311 18.8
2005-05-19 07:53:59 51°16.015 2°40.809 310.9 13.3 311 19
2005-05-19 07:54:03 51°16.025 2°40.792 311.1 13.3 311 19.3
2005-05-19 07:54:09 51°16.038 2°40.768 311.6 13.4 312 19.7
2005-05-19 07:54:14 51°16.051 2°40.745 311.5 13.4 312 19.9
2005-05-19 07:54:19 51°16.065 2°40.721 311.5 13.4 311 20
2005-05-19 07:54:24 51°16.076 2°40.701 311.3 13.4 311 20.4
2005-05-19 07:54:29 51°16.088 2°40.679 311.3 13.4 312 20.6
2005-05-19 07:54:34 51°16.1 2°40.657 311.6 13.4 312 20.8
2005-05-19 07:54:39 51°16.113 2°40.635 311.5 13.4 312 21
2005-05-19 07:54:43 51°16.124 2°40.615 311.3 13.4 312 21.1
2005-05-19 07:54:49 51°16.137 2°40.591 311.6 13.4 311 21.4
2005-05-19 07:54:54 51°16.15 2°40.568 311.9 13.4 311 21.5
2005-05-19 07:54:59 51°16.162 2°40.547 312.1 13.4 312 21.7
2005-05-19 07:55:03 51°16.174 2°40.527 311.8 13.4 312 21.8
2005-05-19 07:55:09 51°16.187 2°40.502 312 13.4 312 21.9
2005-05-19 07:55:13 51°16.198 2°40.482 312 13.4 312 21.9
2005-05-19 07:55:19 51°16.212 2°40.458 311.4 13.3 311 22
2005-05-19 07:55:23 51°16.223 2°40.439 311.5 13.3 312 22.1
2005-05-19 07:55:29 51°16.236 2°40.418 311.9 13.2 312 22.2
2005-05-19 07:55:32 51°16.243 2°40.404 311.7 11.7 313 22.5
2005-05-19 07:55:39 51°16.257 2°40.381 311 11.7 313 22.7
2005-05-19 07:55:43 51°16.265 2°40.366 310.2 11.7 313 22.9
2005-05-19 07:55:49 51°16.274 2°40.349 309 9.6 311 23
2005-05-19 07:55:53 51°16.281 2°40.337 307.6 9.5 311 23.3
2005-05-19 07:55:59 51°16.288 2°40.319 304.2 8.9 309 23.2
2005-05-19 07:56:03 51°16.292 2°40.307 299.2 8.9 309 23.2
2005-05-19 07:56:09 51°16.296 2°40.292 293.6 6.8 296 23.2
2005-05-19 07:56:13 51°16.298 2°40.282 288.1 6.3 291 23.3
2005-05-19 07:56:19 51°16.3 2°40.268 282.1 6 289 23.2
2005-05-19 07:56:24 51°16.301 2°40.257 277.2 6 289 23.4
2005-05-19 07:56:29 51°16.301 2°40.248 271.4 6 289 23.3
2005-05-19 07:56:33 51°16.301 2°40.24 265.9 6 289 23.3
2005-05-19 07:56:39 51°16.301 2°40.23 260.5 4.1 271 23.2
2005-05-19 07:56:44 51°16.301 2°40.224 258.2 3.7 267 23.3
2005-05-19 07:56:49 51°16.301 2°40.217 256.9 3.7 267 23.3
2005-05-19 07:56:54 51°16.3 2°40.21 256.1 3.7 267 23.3
2005-05-19 07:56:59 51°16.301 2°40.205 255.6 2.8 268 23.2
2005-05-19 07:57:04 51°16.3 2°40.199 254.8 2.6 268 23.2
2005-05-19 07:57:09 51°16.3 2°40.194 253.7 2.2 266 23.1
2005-05-19 07:57:14 51°16.3 2°40.191 252.2 2.2 266 23.1
2005-05-19 07:57:19 51°16.3 2°40.187 249.8 1.8 267 23.1
2005-05-19 07:57:23 51°16.3 2°40.184 247.7 1.5 264 23.2
2005-05-19 07:57:29 51°16.3 2°40.182 245.7 1.4 271 23.2
2005-05-19 07:57:34 51°16.3 2°40.18 243.6 1.4 271 23.2
2005-05-19 07:57:39 51°16.301 2°40.18 241.4 0.5 300 23.3
2005-05-19 07:57:43 51°16.301 2°40.18 239.4 0.5 300 23.1
2005-05-19 07:57:49 51°16.302 2°40.18 236.4 0.5 342 23.1
2005-05-19 07:57:54 51°16.304 2°40.181 235.1 0.5 342 23.1
2005-05-19 07:57:59 51°16.305 2°40.182 234.5 0.9 23 23.1
2005-05-19 07:58:04 51°16.306 2°40.182 234.1 0.9 25 23.1
2005-05-19 07:58:09 51°16.307 2°40.184 234.2 1 24 23.2
2005-05-19 07:58:14 51°16.309 2°40.184 234.4 1 24 23.3
2005-05-19 07:58:19 51°16.31 2°40.186 234.4 1.1 21 23.2
2005-05-19 07:58:23 51°16.311 2°40.186 234.8 1.1 21 23.2
2005-05-19 07:58:28 51°16.313 2°40.187 235 1.2 18 23.3
2005-05-19 07:58:34 51°16.314 2°40.188 235.1 1.2 18 23.2
2005-05-19 07:58:39 51°16.316 2°40.19 235.7 1.2 25 23.3
2005-05-19 07:58:43 51°16.317 2°40.191 236.2 1.2 25 23.2
2005-05-19 07:58:49 51°16.319 2°40.192 236.7 1.1 28 23.3
2005-05-19 07:58:54 51°16.32 2°40.194 237.2 1.1 28 23.2
2005-05-19 07:58:59 51°16.322 2°40.195 237.9 1.2 22 23.2
2005-05-19 07:59:04 51°16.323 2°40.196 238.4 1.2 22 23.2
2005-05-19 07:59:09 51°16.325 2°40.197 239.4 1.3 25 23.3
2005-05-19 07:59:14 51°16.326 2°40.199 239.9 1.3 25 23.3
2005-05-19 07:59:19 51°16.328 2°40.2 240.7 1.4 25 23.3
2005-05-19 07:59:23 51°16.329 2°40.201 241.6 1.3 30 23.3
2005-05-19 07:59:28 51°16.331 2°40.203 242.4 1.4 26 23.3
2005-05-19 07:59:33 51°16.333 2°40.204 243.3 1.3 28 23.4
2005-05-19 07:59:39 51°16.335 2°40.206 244.1 1.3 28 23.3
2005-05-19 07:59:44 51°16.337 2°40.208 245.3 1.3 28 23.3
2005-05-19 07:59:49 51°16.338 2°40.209 246.7 1.5 26 23.3
2005-05-19 07:59:54 51°16.34 2°40.211 247.9 1.5 26 23.4
2005-05-19 07:59:59 51°16.342 2°40.212 249.3 1.4 30 23.3
2005-05-19 08:00:03 51°16.343 2°40.213 250.5 1.4 30 23.2
2005-05-19 08:00:09 51°16.345 2°40.215 252.4 1.4 30 23.4
2005-05-19 08:00:14 51°16.347 2°40.217 253.3 1.5 29 23.3
2005-05-19 08:00:19 51°16.349 2°40.219 255.1 1.5 29 23.3
2005-05-19 08:00:23 51°16.351 2°40.22 256.8 1.5 29 23.4
2005-05-19 08:00:29 51°16.353 2°40.222 258.5 1.5 31 23.3
2005-05-19 08:00:34 51°16.354 2°40.224 260.6 1.6 26 23.3
2005-05-19 08:00:39 51°16.356 2°40.225 262 1.4 33 23.4
2005-05-19 08:00:43 51°16.358 2°40.227 264 1.4 33 23.4
2005-05-19 08:00:49 51°16.36 2°40.228 265.7 1.4 33 23.3
2005-05-19 08:00:54 51°16.362 2°40.229 267.4 1.4 33 23.4
2005-05-19 08:00:59 51°16.364 2°40.23 268.9 1.5 20 23.3
2005-05-19 08:01:04 51°16.366 2°40.23 271.1 1.4 17 23.3
2005-05-19 08:01:09 51°16.368 2°40.23 272.7 1.3 7 23.3
2005-05-19 08:01:13 51°16.369 2°40.23 274.6 1.2 350 23.3
2005-05-19 08:01:19 51°16.371 2°40.229 277.1 1.2 350 23.1
2005-05-19 08:01:23 51°16.373 2°40.228 278.7 1.2 344 23.3
2005-05-19 08:01:29 51°16.375 2°40.227 279.8 1.4 345 23.3
2005-05-19 08:01:34 51°16.377 2°40.226 280.6 1.4 345 23.3
2005-05-19 08:01:39 51°16.379 2°40.226 280.9 1.5 342 23.4
2005-05-19 08:01:43 51°16.38 2°40.224 280.9 1.5 339 23.3
2005-05-19 08:01:49 51°16.382 2°40.222 281.4 1.5 339 23.4
2005-05-19 08:01:54 51°16.384 2°40.222 281.6 1.5 339 23.4
2005-05-19 08:01:59 51°16.386 2°40.219 281.8 1.5 339 23.3
2005-05-19 08:02:04 51°16.388 2°40.217 282.1 1.5 329 23.3
2005-05-19 08:02:09 51°16.389 2°40.215 282.4 1.6 326 23.3
2005-05-19 08:02:14 51°16.392 2°40.213 282.6 1.6 324 23.2
2005-05-19 08:02:19 51°16.393 2°40.211 283 1.7 326 23.3
2005-05-19 08:02:24 51°16.395 2°40.208 283.2 1.7 326 23.3
2005-05-19 08:02:29 51°16.397 2°40.206 283.6 1.8 324 23.4
2005-05-19 08:02:34 51°16.4 2°40.203 283.8 1.8 319 23.4
2005-05-19 08:02:39 51°16.401 2°40.201 284.2 1.9 324 22.5
2005-05-19 08:02:44 51°16.403 2°40.198 284.6 1.8 319 23.4
2005-05-19 08:02:49 51°16.405 2°40.196 285 2 324 23.2
2005-05-19 08:02:53 51°16.407 2°40.193 285.5 1.9 318 23.2
2005-05-19 08:02:59 51°16.41 2°40.19 286.1 2 322 23.2
2005-05-19 08:03:04 51°16.412 2°40.187 286.6 2 322 23.3
2005-05-19 08:03:09 51°16.414 2°40.184 287.6 2.1 325 23.3
2005-05-19 08:03:13 51°16.416 2°40.182 289.3 2 321 23.2
2005-05-19 08:03:19 51°16.419 2°40.179 290.4 2.2 324 23.4
2005-05-19 08:03:24 51°16.421 2°40.176 291.3 2.2 323 23.3
2005-05-19 08:03:29 51°16.424 2°40.173 292.6 2.2 323 23.3
2005-05-19 08:03:33 51°16.426 2°40.17 293.4 2.3 324 23.3
2005-05-19 08:03:39 51°16.429 2°40.167 294.4 2.3 323 23.4
2005-05-19 08:03:43 51°16.431 2°40.165 296 2.4 326 23.4
2005-05-19 08:03:49 51°16.434 2°40.161 298 2.3 324 23.5
2005-05-19 08:03:53 51°16.437 2°40.159 299.8 2.5 331 23.3
2005-05-19 08:03:59 51°16.441 2°40.156 301.7 2.5 331 23.3
2005-05-19 08:04:04 51°16.443 2°40.153 303.8 2.6 334 23.3
2005-05-19 08:04:09 51°16.447 2°40.151 305.5 2.6 336 23.3
2005-05-19 08:04:13 51°16.45 2°40.149 308 2.7 339 23.4
2005-05-19 08:04:19 51°16.454 2°40.147 310.2 2.7 339 23.2
2005-05-19 08:04:24 51°16.458 2°40.145 312 2.8 341 23.3
2005-05-19 08:04:29 51°16.462 2°40.143 314.6 2.8 341 23.4
2005-05-19 08:04:33 51°16.465 2°40.141 317.1 2.9 344 23.5
2005-05-19 08:04:39 51°16.47 2°40.139 319.8 2.9 344 23.3
2005-05-19 08:04:44 51°16.474 2°40.138 321.8 3 348 23.4
2005-05-19 08:04:49 51°16.478 2°40.137 324.4 3 348 23.4
2005-05-19 08:04:53 51°16.481 2°40.136 327.4 3.1 352 23.4
2005-05-19 08:04:59 51°16.487 2°40.135 330.9 3.1 352 23.3
2005-05-19 08:05:04 51°16.491 2°40.135 333.1 3.2 354 23.3
2005-05-19 08:05:08 51°16.495 2°40.135 336 3.3 356 23.4
2005-05-19 08:05:14 51°16.5 2°40.134 339.4 3.3 356 23.4
2005-05-19 08:05:19 51°16.505 2°40.135 342.5 3.3 356 23.3
2005-05-19 08:05:23 51°16.509 2°40.135 345.4 3.3 356 23.4
2005-05-19 08:05:28 51°16.514 2°40.136 348.1 3.4 2 23.4
2005-05-19 08:05:34 51°16.519 2°40.137 351.1 3.5 5 23.4
2005-05-19 08:05:39 51°16.525 2°40.139 353.4 3.5 8 23.4
2005-05-19 08:05:43 51°16.529 2°40.14 356.3 3.6 9 23.4
2005-05-19 08:05:49 51°16.534 2°40.142 359.2 3.6 11 23.4
2005-05-19 08:05:54 51°16.539 2°40.144 2.3 3.6 11 23.3
2005-05-19 08:05:59 51°16.544 2°40.146 5.3 3.6 11 23.4
2005-05-19 08:06:03 51°16.548 2°40.149 9.3 3.6 11 23.4
2005-05-19 08:06:09 51°16.554 2°40.152 11.6 3.6 11 23.4
2005-05-19 08:06:13 51°16.557 2°40.155 14.7 3.8 20 23.4
2005-05-19 08:06:19 51°16.563 2°40.159 18.7 3.8 25 23.3
2005-05-19 08:06:24 51°16.568 2°40.164 20.9 3.8 24 23.4
2005-05-19 08:06:29 51°16.573 2°40.167 24.1 3.8 29 23.5
2005-05-19 08:06:34 51°16.577 2°40.172 27.4 3.8 30 23.5
2005-05-19 08:06:39 51°16.582 2°40.176 30.6 3.8 31 23.4
2005-05-19 08:06:44 51°16.586 2°40.181 33.9 3.8 34 23.5
2005-05-19 08:06:49 51°16.59 2°40.186 37.4 3.8 37 23.6
2005-05-19 08:06:54 51°16.594 2°40.191 40.7 3.8 37 23.5
2005-05-19 08:06:59 51°16.598 2°40.196 44.1 3.7 39 23.4
2005-05-19 08:07:03 51°16.601 2°40.201 47.4 3.7 39 23.6
2005-05-19 08:07:09 51°16.606 2°40.208 50.7 3.7 39 23.4
2005-05-19 08:07:14 51°16.609 2°40.213 54 3.7 45 23.6
2005-05-19 08:07:19 51°16.613 2°40.22 57 3.7 45 23.5
2005-05-19 08:07:23 51°16.616 2°40.225 59.9 3.6 49 23.5
2005-05-19 08:07:28 51°16.619 2°40.231 63.6 3.6 50 23.7
2005-05-19 08:07:33 51°16.621 2°40.236 66.6 3.5 52 23.5
2005-05-19 08:07:39 51°16.625 2°40.245 68.9 3.5 52 23.7
2005-05-19 08:07:44 51°16.628 2°40.25 71.8 3.5 52 23.7
2005-05-19 08:07:49 51°16.63 2°40.257 74.8 3.5 56 23.6
2005-05-19 08:07:54 51°16.632 2°40.263 77.5 3.5 56 23.6
2005-05-19 08:07:59 51°16.635 2°40.27 80.6 3.4 59 23.8
2005-05-19 08:08:04 51°16.637 2°40.276 83.8 3.3 62 23.7
2005-05-19 08:08:09 51°16.639 2°40.283 86.7 3.3 62 23.7
2005-05-19 08:08:14 51°16.641 2°40.289 89.1 3.2 64 23.7
2005-05-19 08:08:19 51°16.643 2°40.296 91.6 3.2 64 23.5
2005-05-19 08:08:23 51°16.644 2°40.301 94.1 3.2 66 23.7
2005-05-19 08:08:28 51°16.646 2°40.308 96.5 3.2 66 23.8
2005-05-19 08:08:33 51°16.647 2°40.313 98.6 3 68 23.7
2005-05-19 08:08:39 51°16.649 2°40.321 100.6 2.9 68 23.8
2005-05-19 08:08:44 51°16.651 2°40.326 102.1 2.8 69 23.7
2005-05-19 08:08:49 51°16.652 2°40.332 103.6 2.8 67 23.9
2005-05-19 08:08:54 51°16.654 2°40.337 104.5 2.8 67 23.8
2005-05-19 08:08:59 51°16.655 2°40.342 105.3 2.8 67 24
2005-05-19 08:09:04 51°16.656 2°40.347 105.9 2.8 67 23.8
2005-05-19 08:09:09 51°16.658 2°40.353 106.9 2.5 68 23.8
2005-05-19 08:09:14 51°16.659 2°40.358 107.7 2.5 65 23.9
2005-05-19 08:09:18 51°16.66 2°40.362 108.8 2.5 65 23.9
2005-05-19 08:09:23 51°16.661 2°40.367 109.5 2.5 65 23.6
2005-05-19 08:09:29 51°16.662 2°40.374 110.3 2.5 75 23.9
2005-05-19 08:09:32 51°16.662 2°40.378 112.8 2.9 85 23.9
2005-05-19 08:09:39 51°16.662 2°40.388 116.6 2.9 85 23.8
2005-05-19 08:09:44 51°16.662 2°40.394 122.1 2.9 85 24
2005-05-19 08:09:49 51°16.66 2°40.402 128.2 3.4 102 23.9
2005-05-19 08:09:54 51°16.659 2°40.409 134.2 3.4 102 23.9
2005-05-19 08:09:59 51°16.656 2°40.416 140.3 3.3 118 23.9
2005-05-19 08:10:04 51°16.653 2°40.421 146.8 3.3 118 24
2005-05-19 08:10:09 51°16.65 2°40.426 153.4 3.3 118 24
2005-05-19 08:10:13 51°16.647 2°40.43 160.3 3.4 143 24
2005-05-19 08:10:19 51°16.641 2°40.434 167 3.4 143 24
2005-05-19 08:10:24 51°16.637 2°40.436 172.9 3.4 143 23.9
2005-05-19 08:10:29 51°16.632 2°40.438 180.8 3.5 164 23.9
2005-05-19 08:10:34 51°16.627 2°40.438 186.1 3.5 164 23.9
2005-05-19 08:10:39 51°16.622 2°40.438 191.4 3.5 164 24
2005-05-19 08:10:43 51°16.617 2°40.437 196.6 3.8 183 23.9
2005-05-19 08:10:49 51°16.611 2°40.435 200.2 4 188 23.9
2005-05-19 08:10:54 51°16.605 2°40.433 202.5 4.2 193 23.9
2005-05-19 08:10:59 51°16.599 2°40.43 203.4 4.2 193 23.9
2005-05-19 08:11:04 51°16.593 2°40.427 204.4 4.2 193 23.9
2005-05-19 08:11:09 51°16.586 2°40.423 205.7 4.2 193 23.9
2005-05-19 08:11:14 51°16.581 2°40.42 206.7 4.5 199 23.8
2005-05-19 08:11:19 51°16.575 2°40.417 207.7 4.4 200 23.9
2005-05-19 08:11:23 51°16.57 2°40.413 208.5 4.4 201 23.8
2005-05-19 08:11:29 51°16.564 2°40.409 209.4 4.4 203 23.9
2005-05-19 08:11:34 51°16.558 2°40.405 209.7 4.5 202 23.8
2005-05-19 08:11:39 51°16.552 2°40.401 210.1 4.5 202 23.6
2005-05-19 08:11:43 51°16.547 2°40.397 210.5 4.5 202 23.7
2005-05-19 08:11:49 51°16.541 2°40.392 210.6 4.7 204 23.7
2005-05-19 08:11:54 51°16.533 2°40.387 210.5 4.7 204 23.6
2005-05-19 08:11:59 51°16.527 2°40.383 210.4 4.9 203 23.8
2005-05-19 08:12:04 51°16.521 2°40.379 210.1 4.8 205 23.7
2005-05-19 08:12:09 51°16.516 2°40.375 209.8 4.8 203 23.7
2005-05-19 08:12:13 51°16.511 2°40.372 209.5 4.7 203 23.7
2005-05-19 08:12:19 51°16.504 2°40.367 209.1 4.6 201 23.7
2005-05-19 08:12:24 51°16.498 2°40.364 208.7 4.6 203 23.8
2005-05-19 08:12:29 51°16.492 2°40.36 208.5 4.6 203 23.7
2005-05-19 08:12:33 51°16.487 2°40.357 208.3 4.5 202 23.7
2005-05-19 08:12:39 51°16.48 2°40.353 208.3 4.6 201 23.7
2005-05-19 08:12:44 51°16.474 2°40.349 208.2 4.6 201 23.6
2005-05-19 08:12:49 51°16.468 2°40.345 208.3 4.6 201 23.7
2005-05-19 08:12:54 51°16.461 2°40.341 208.3 4.9 202 23.6
2005-05-19 08:12:59 51°16.455 2°40.337 208.5 4.8 202 23.7
2005-05-19 08:13:04 51°16.449 2°40.333 208.9 4.7 202 23.7
2005-05-19 08:13:09 51°16.443 2°40.329 209.5 4.7 202 23.7
2005-05-19 08:13:14 51°16.437 2°40.325 209.5 5 202 22.2
2005-05-19 08:13:19 51°16.429 2°40.32 209.2 5 202 23.6
2005-05-19 08:13:23 51°16.423 2°40.316 209.2 5 202 23.5
2005-05-19 08:13:29 51°16.415 2°40.31 208.9 5 202 23.5
2005-05-19 08:13:33 51°16.409 2°40.306 208.8 6.2 202 23.5
2005-05-19 08:13:39 51°16.398 2°40.299 208.3 6.2 202 23.5
2005-05-19 08:13:44 51°16.391 2°40.294 208.3 6.3 202 23.5
2005-05-19 08:13:49 51°16.382 2°40.289 208.6 6.7 202 23.5
2005-05-19 08:13:53 51°16.375 2°40.284 208.9 6.6 202 23.4
2005-05-19 08:13:59 51°16.365 2°40.278 208.9 6.5 202 23.3
2005-05-19 08:14:04 51°16.357 2°40.272 208.9 6.5 202 23.4
2005-05-19 08:14:09 51°16.35 2°40.268 209 5.8 203 23.4
2005-05-19 08:14:14 51°16.343 2°40.263 209 5.5 200 23.4
2005-05-19 08:14:19 51°16.336 2°40.259 209 5.3 202 23.4
2005-05-19 08:14:24 51°16.33 2°40.256 209.3 4.9 200 23.4
2005-05-19 08:14:29 51°16.325 2°40.253 209 4.9 200 23.4
2005-05-19 08:14:34 51°16.32 2°40.249 208.9 4.4 199 23.4
2005-05-19 08:14:39 51°16.314 2°40.246 208.6 4.4 199 23.4
2005-05-19 08:14:44 51°16.309 2°40.244 208.5 4.4 199 23.4
2005-05-19 08:14:49 51°16.305 2°40.242 208.3 4.4 199 23.4
2005-05-19 08:14:53 51°16.301 2°40.24 207.7 3.3 195 23.3
2005-05-19 08:14:59 51°16.296 2°40.238 206.8 3.3 195 23.3
2005-05-19 08:15:03 51°16.293 2°40.237 205.5 2.6 190 23.3
2005-05-19 08:15:09 51°16.29 2°40.237 204.2 2.2 189 23.2
2005-05-19 08:15:13 51°16.288 2°40.237 202.3 1.8 180 23.3
2005-05-19 08:15:19 51°16.286 2°40.237 200.1 1.8 180 23.3
2005-05-19 08:15:23 51°16.286 2°40.238 197.8 1.2 171 23.3
2005-05-19 08:15:29 51°16.285 2°40.239 195.6 1.2 171 23.3
2005-05-19 08:15:34 51°16.284 2°40.24 193.7 1.2 171 23.3
2005-05-19 08:15:39 51°16.284 2°40.242 192.1 0.8 132 23.4
2005-05-19 08:15:44 51°16.283 2°40.243 190.2 0.7 130 23.4
2005-05-19 08:15:49 51°16.283 2°40.244 188.6 0.7 130 23.3
2005-05-19 08:15:54 51°16.282 2°40.246 187.2 0.7 130 23.4
2005-05-19 08:15:59 51°16.282 2°40.248 185.8 0.7 130 23.3
2005-05-19 08:16:03 51°16.281 2°40.249 184.1 0.7 130 23.3
2005-05-19 08:16:09 51°16.281 2°40.251 182.2 0.9 105 23.4
2005-05-19 08:16:13 51°16.281 2°40.253 180.7 0.9 105 23.3
2005-05-19 08:16:19 51°16.281 2°40.255 179.1 0.9 105 23.4
2005-05-19 08:16:23 51°16.281 2°40.257 177.7 0.9 99 23.4
2005-05-19 08:16:29 51°16.281 2°40.259 176 0.9 99 23.3
2005-05-19 08:16:34 51°16.281 2°40.262 174.6 0.9 92 23.3
2005-05-19 08:16:39 51°16.281 2°40.264 173.1 0.9 92 23.4
2005-05-19 08:16:43 51°16.281 2°40.266 171.2 0.9 92 23.3
2005-05-19 08:16:49 51°16.281 2°40.269 169.4 0.9 92 23.3
2005-05-19 08:16:53 51°16.281 2°40.271 168 1.2 84 23.3
2005-05-19 08:16:59 51°16.282 2°40.275 166.2 1.2 84 23.4
2005-05-19 08:17:03 51°16.282 2°40.277 164.6 1.2 81 23.4
2005-05-19 08:17:09 51°16.282 2°40.28 162.5 1.3 78 23.3
2005-05-19 08:17:13 51°16.283 2°40.282 160.8 1.2 79 23.3
2005-05-19 08:17:19 51°16.283 2°40.286 159.2 1.3 75 23.4
2005-05-19 08:17:23 51°16.284 2°40.288 157.2 1.3 75 23.4
2005-05-19 08:17:29 51°16.284 2°40.291 155.3 1.4 72 23.4
2005-05-19 08:17:34 51°16.285 2°40.294 153.6 1.4 72 23.4
2005-05-19 08:17:39 51°16.285 2°40.297 151.8 1.4 71 23.4
2005-05-19 08:17:43 51°16.286 2°40.3 150.2 1.5 68 23.4
2005-05-19 08:17:49 51°16.287 2°40.303 148.5 1.5 66 23.4
2005-05-19 08:17:53 51°16.288 2°40.306 146.7 1.6 67 23.3
2005-05-19 08:17:58 51°16.289 2°40.309 145.1 1.6 66 23.4
2005-05-19 08:18:04 51°16.29 2°40.313 143.7 1.6 66 23.4
2005-05-19 08:18:09 51°16.29 2°40.316 141.6 1.6 63 23.4
2005-05-19 08:18:13 51°16.291 2°40.319 140.3 1.7 62 23.4
2005-05-19 08:18:19 51°16.293 2°40.323 138.8 1.7 62 23.4
2005-05-19 08:18:23 51°16.293 2°40.326 137 1.7 62 23.4
2005-05-19 08:18:29 51°16.295 2°40.329 135.5 1.6 62 23.4
2005-05-19 08:18:34 51°16.296 2°40.332 133.9 1.8 59 23.5